Overton, Texas
Current Conditions -  °F | °C
As of 6:15 AM on Friday 21 Nov 2014 (Local Time) from KRFI Reporting Station
Overcast Overcast  
Wind Chill: 56°   Ceiling: 500
Heat Index: 56°   Visibility: 10mi
Dew Point: 56°   Wind: 8mph
Humidity: 100%   Direction: 150°SSE
Pressure: 30.14"   Gusts: NA
Location:  32.27°N, 94.98°W
Report Text: KRFI 211215Z AUTO 15007KT 10SM OVC005 14/14 A3014 RMK AO2 T01360136
Loading
Personal Weather Stations






























Interactive Weather Map New forecast layout! Learn more

10-Day Weather Forecast

Advertisements
Track Severe Weather on mobile